Airfield :
LOGIN :

Register | Disclaimer

   EN    FR    IT 

 










Legend :    VFR   Marginal VFR   IFR   Intensive IFR   Very Intensive IFR
Visi :
Ceiling :
>= 8 km
>= 3000ft
5 to 8 km
1000 to 3000 ft
1500m to 5 km
500 to 1000 ft
800 to 1500m
200 to 500 ft
< 800m
< 200 ft
Symbols :   Thunderstorms  Fog  Heavy snow  Heavy precipitations  Wind > 20 kt
SIGMETs :     Misc.  Thunderstorms  Icing  Turbulence  Mountain Waves  Volcanic Ashes






- Airport Elevation : 49 ft
- IATA code : SEN


EGMC - Southend

CURRENT METAR :
  • 160550Z 22006KT CAVOK 10/09 Q0999

EXPIRED METARs :
  • 160520Z 22004KT CAVOK 09/08 Q0999
  • 160450Z 22005KT CAVOK 08/08 Q0999
  • 160420Z 21007KT CAVOK 08/08 Q0999
  • 160350Z 23005KT CAVOK 07/07 Q0999
  • 160320Z 23005KT CAVOK 07/07 Q0999

TAF TAF EGMC
Valid from the 16 at 06:00 until the 16 at 15:00 UTC


160456Z 1606/1615 22006KT 9999 SCT030
PROB30
TEMPO 1606/1608 8000 BKN012
TEMPO 1608/1615 7000 SHRA
PROB30
TEMPO 1610/1615 4000 +TSRAGS BKN014 BKN020CB



MET'MAP, your aeronautical weather chart ! - Copyright ORBIFLY December 2007 - Disclaimer

ORBIFLY MET'MAP TEAM :

Programming & Development : Alexandra Zaïnal
Concept & original design : Baudouin d'Aumeries
Assistance for programming : Marc-Olivier Méhu
Technical & hardware support : Manuel Goepfert

Contact : metmap@orbifly.com




SOURCES & CREDITS :

   NOAA